sensor_id;sensor_type;location;lat;lon;timestamp;P1;durP1;ratioP1;P2;durP2;ratioP2
9671;SDS011;4874;43.568;27.824;2023-05-29T00:00:30;32.65;;;21.77;;
9671;SDS011;4874;43.568;27.824;2023-05-29T00:02:58;31.85;;;21.80;;
9671;SDS011;4874;43.568;27.824;2023-05-29T00:05:25;30.98;;;21.52;;
9671;SDS011;4874;43.568;27.824;2023-05-29T00:07:51;36.53;;;24.02;;
9671;SDS011;4874;43.568;27.824;2023-05-29T00:10:18;37.33;;;23.90;;
9671;SDS011;4874;43.568;27.824;2023-05-29T00:12:45;34.30;;;22.02;;
9671;SDS011;4874;43.568;27.824;2023-05-29T00:15:12;29.45;;;20.55;;
9671;SDS011;4874;43.568;27.824;2023-05-29T00:17:38;30.60;;;21.38;;
9671;SDS011;4874;43.568;27.824;2023-05-29T00:20:06;31.63;;;21.08;;
9671;SDS011;4874;43.568;27.824;2023-05-29T00:22:36;27.08;;;20.00;;
9671;SDS011;4874;43.568;27.824;2023-05-29T00:25:05;26.95;;;18.10;;
9671;SDS011;4874;43.568;27.824;2023-05-29T00:27:33;29.17;;;19.10;;
9671;SDS011;4874;43.568;27.824;2023-05-29T00:30:01;26.17;;;18.00;;
9671;SDS011;4874;43.568;27.824;2023-05-29T00:32:29;21.42;;;17.08;;
9671;SDS011;4874;43.568;27.824;2023-05-29T00:34:56;22.42;;;17.48;;
9671;SDS011;4874;43.568;27.824;2023-05-29T00:37:23;21.38;;;17.58;;
9671;SDS011;4874;43.568;27.824;2023-05-29T00:39:50;26.45;;;17.02;;
9671;SDS011;4874;43.568;27.824;2023-05-29T00:42:17;22.55;;;17.02;;
9671;SDS011;4874;43.568;27.824;2023-05-29T00:44:44;23.58;;;17.20;;
9671;SDS011;4874;43.568;27.824;2023-05-29T00:47:12;22.13;;;16.15;;
9671;SDS011;4874;43.568;27.824;2023-05-29T00:49:39;24.15;;;16.52;;
9671;SDS011;4874;43.568;27.824;2023-05-29T00:52:06;21.85;;;16.73;;
9671;SDS011;4874;43.568;27.824;2023-05-29T00:54:35;24.98;;;16.75;;
9671;SDS011;4874;43.568;27.824;2023-05-29T00:57:02;22.00;;;16.95;;
9671;SDS011;4874;43.568;27.824;2023-05-29T00:59:32;23.00;;;16.83;;
9671;SDS011;4874;43.568;27.824;2023-05-29T01:02:01;23.90;;;17.58;;
9671;SDS011;4874;43.568;27.824;2023-05-29T01:04:29;28.40;;;18.13;;
9671;SDS011;4874;43.568;27.824;2023-05-29T01:07:00;25.65;;;18.08;;
9671;SDS011;4874;43.568;27.824;2023-05-29T01:09:29;25.20;;;18.73;;
9671;SDS011;4874;43.568;27.824;2023-05-29T01:17:11;25.80;;;19.65;;
9671;SDS011;4874;43.568;27.824;2023-05-29T01:25:07;29.25;;;19.30;;
9671;SDS011;4874;43.568;27.824;2023-05-29T01:27:42;24.77;;;19.02;;
9671;SDS011;4874;43.568;27.824;2023-05-29T01:30:14;30.25;;;19.38;;
9671;SDS011;4874;43.568;27.824;2023-05-29T01:32:41;29.02;;;19.23;;
9671;SDS011;4874;43.568;27.824;2023-05-29T01:35:09;28.67;;;19.85;;
9671;SDS011;4874;43.568;27.824;2023-05-29T01:37:36;24.50;;;19.55;;
9671;SDS011;4874;43.568;27.824;2023-05-29T01:40:03;24.60;;;18.77;;
9671;SDS011;4874;43.568;27.824;2023-05-29T01:42:30;25.48;;;17.48;;
9671;SDS011;4874;43.568;27.824;2023-05-29T01:44:58;31.02;;;19.67;;
9671;SDS011;4874;43.568;27.824;2023-05-29T01:47:26;27.38;;;18.77;;
9671;SDS011;4874;43.568;27.824;2023-05-29T01:49:53;24.35;;;17.95;;
9671;SDS011;4874;43.568;27.824;2023-05-29T01:52:21;24.80;;;18.50;;
9671;SDS011;4874;43.568;27.824;2023-05-29T01:54:48;22.52;;;17.13;;
9671;SDS011;4874;43.568;27.824;2023-05-29T01:57:15;24.65;;;19.15;;
9671;SDS011;4874;43.568;27.824;2023-05-29T01:59:43;22.58;;;17.45;;
9671;SDS011;4874;43.568;27.824;2023-05-29T02:02:09;24.33;;;17.38;;
9671;SDS011;4874;43.568;27.824;2023-05-29T02:04:38;24.92;;;17.23;;
9671;SDS011;4874;43.568;27.824;2023-05-29T02:07:04;23.45;;;17.13;;
9671;SDS011;4874;43.568;27.824;2023-05-29T02:09:32;22.75;;;17.13;;
9671;SDS011;4874;43.568;27.824;2023-05-29T02:12:00;23.13;;;17.20;;
9671;SDS011;4874;43.568;27.824;2023-05-29T02:14:28;25.25;;;18.10;;
9671;SDS011;4874;43.568;27.824;2023-05-29T02:16:55;23.33;;;17.52;;
9671;SDS011;4874;43.568;27.824;2023-05-29T02:19:23;24.17;;;17.58;;
9671;SDS011;4874;43.568;27.824;2023-05-29T02:21:51;27.77;;;18.35;;
9671;SDS011;4874;43.568;27.824;2023-05-29T02:24:18;26.05;;;17.60;;
9671;SDS011;4874;43.568;27.824;2023-05-29T02:26:45;25.92;;;18.33;;
9671;SDS011;4874;43.568;27.824;2023-05-29T02:29:14;21.70;;;16.35;;
9671;SDS011;4874;43.568;27.824;2023-05-29T02:31:41;24.25;;;16.95;;
9671;SDS011;4874;43.568;27.824;2023-05-29T02:34:08;23.27;;;17.40;;
9671;SDS011;4874;43.568;27.824;2023-05-29T02:36:34;22.88;;;17.27;;
9671;SDS011;4874;43.568;27.824;2023-05-29T02:39:04;25.10;;;16.38;;
9671;SDS011;4874;43.568;27.824;2023-05-29T02:41:32;24.15;;;16.30;;
9671;SDS011;4874;43.568;27.824;2023-05-29T02:43:58;19.92;;;15.95;;
9671;SDS011;4874;43.568;27.824;2023-05-29T02:46:25;23.20;;;15.85;;
9671;SDS011;4874;43.568;27.824;2023-05-29T02:48:52;22.52;;;16.13;;
9671;SDS011;4874;43.568;27.824;2023-05-29T02:51:19;19.80;;;16.25;;
9671;SDS011;4874;43.568;27.824;2023-05-29T02:53:46;23.67;;;15.90;;
9671;SDS011;4874;43.568;27.824;2023-05-29T02:56:14;21.45;;;15.30;;
9671;SDS011;4874;43.568;27.824;2023-05-29T02:58:42;20.85;;;15.20;;
9671;SDS011;4874;43.568;27.824;2023-05-29T03:01:09;24.05;;;16.38;;
9671;SDS011;4874;43.568;27.824;2023-05-29T03:03:36;20.38;;;16.27;;
9671;SDS011;4874;43.568;27.824;2023-05-29T03:06:03;19.27;;;15.05;;
9671;SDS011;4874;43.568;27.824;2023-05-29T03:08:31;22.20;;;15.73;;
9671;SDS011;4874;43.568;27.824;2023-05-29T03:10:58;18.95;;;15.20;;
9671;SDS011;4874;43.568;27.824;2023-05-29T03:13:24;25.15;;;16.40;;
9671;SDS011;4874;43.568;27.824;2023-05-29T03:15:51;20.13;;;15.07;;
9671;SDS011;4874;43.568;27.824;2023-05-29T03:18:23;20.30;;;15.27;;
9671;SDS011;4874;43.568;27.824;2023-05-29T03:20:49;20.70;;;15.30;;
9671;SDS011;4874;43.568;27.824;2023-05-29T03:23:16;20.75;;;15.07;;
9671;SDS011;4874;43.568;27.824;2023-05-29T03:25:43;23.30;;;15.52;;
9671;SDS011;4874;43.568;27.824;2023-05-29T03:28:10;18.67;;;14.88;;
9671;SDS011;4874;43.568;27.824;2023-05-29T03:30:37;20.55;;;14.60;;
9671;SDS011;4874;43.568;27.824;2023-05-29T03:33:03;18.50;;;13.90;;
9671;SDS011;4874;43.568;27.824;2023-05-29T03:35:31;20.95;;;14.70;;
9671;SDS011;4874;43.568;27.824;2023-05-29T03:37:58;22.33;;;14.65;;
9671;SDS011;4874;43.568;27.824;2023-05-29T03:40:24;20.92;;;14.57;;
9671;SDS011;4874;43.568;27.824;2023-05-29T03:42:51;20.42;;;14.50;;
9671;SDS011;4874;43.568;27.824;2023-05-29T03:45:18;20.80;;;15.27;;
9671;SDS011;4874;43.568;27.824;2023-05-29T03:47:45;20.17;;;16.02;;
9671;SDS011;4874;43.568;27.824;2023-05-29T03:50:12;21.13;;;15.60;;
9671;SDS011;4874;43.568;27.824;2023-05-29T03:52:41;18.80;;;14.00;;
9671;SDS011;4874;43.568;27.824;2023-05-29T03:55:09;23.98;;;15.48;;
9671;SDS011;4874;43.568;27.824;2023-05-29T03:57:40;22.48;;;15.52;;
9671;SDS011;4874;43.568;27.824;2023-05-29T04:00:08;22.23;;;15.02;;
9671;SDS011;4874;43.568;27.824;2023-05-29T04:02:39;21.73;;;15.75;;
9671;SDS011;4874;43.568;27.824;2023-05-29T04:05:07;21.42;;;15.90;;
9671;SDS011;4874;43.568;27.824;2023-05-29T04:07:35;24.58;;;16.38;;
9671;SDS011;4874;43.568;27.824;2023-05-29T04:10:03;20.25;;;14.85;;
9671;SDS011;4874;43.568;27.824;2023-05-29T04:12:32;21.80;;;15.07;;
9671;SDS011;4874;43.568;27.824;2023-05-29T04:14:59;20.70;;;15.52;;
9671;SDS011;4874;43.568;27.824;2023-05-29T04:17:26;23.55;;;17.48;;
9671;SDS011;4874;43.568;27.824;2023-05-29T04:19:53;23.20;;;16.35;;
9671;SDS011;4874;43.568;27.824;2023-05-29T04:22:19;22.85;;;14.98;;
9671;SDS011;4874;43.568;27.824;2023-05-29T04:24:47;22.15;;;15.50;;
9671;SDS011;4874;43.568;27.824;2023-05-29T04:27:13;19.35;;;14.85;;
9671;SDS011;4874;43.568;27.824;2023-05-29T04:29:41;25.08;;;16.13;;
9671;SDS011;4874;43.568;27.824;2023-05-29T04:32:09;22.52;;;14.93;;
9671;SDS011;4874;43.568;27.824;2023-05-29T04:34:37;19.05;;;15.43;;
9671;SDS011;4874;43.568;27.824;2023-05-29T04:37:10;20.80;;;16.13;;
9671;SDS011;4874;43.568;27.824;2023-05-29T04:39:37;22.85;;;17.33;;
9671;SDS011;4874;43.568;27.824;2023-05-29T04:42:03;21.02;;;17.80;;
9671;SDS011;4874;43.568;27.824;2023-05-29T04:44:31;20.98;;;15.88;;
9671;SDS011;4874;43.568;27.824;2023-05-29T04:46:59;22.80;;;16.77;;
9671;SDS011;4874;43.568;27.824;2023-05-29T04:49:29;24.27;;;16.33;;
9671;SDS011;4874;43.568;27.824;2023-05-29T04:51:56;23.35;;;16.48;;
9671;SDS011;4874;43.568;27.824;2023-05-29T04:54:26;27.95;;;19.40;;
9671;SDS011;4874;43.568;27.824;2023-05-29T04:56:54;25.85;;;17.45;;
9671;SDS011;4874;43.568;27.824;2023-05-29T04:59:21;22.05;;;15.57;;
9671;SDS011;4874;43.568;27.824;2023-05-29T05:01:48;22.00;;;15.80;;
9671;SDS011;4874;43.568;27.824;2023-05-29T05:04:15;23.10;;;18.50;;
9671;SDS011;4874;43.568;27.824;2023-05-29T05:06:42;29.83;;;21.42;;
9671;SDS011;4874;43.568;27.824;2023-05-29T05:09:10;20.48;;;15.65;;
9671;SDS011;4874;43.568;27.824;2023-05-29T05:11:37;23.15;;;15.80;;
9671;SDS011;4874;43.568;27.824;2023-05-29T05:14:04;26.50;;;15.85;;
9671;SDS011;4874;43.568;27.824;2023-05-29T05:16:30;22.27;;;16.00;;
9671;SDS011;4874;43.568;27.824;2023-05-29T05:18:59;22.00;;;14.77;;
9671;SDS011;4874;43.568;27.824;2023-05-29T05:21:26;21.17;;;15.10;;
9671;SDS011;4874;43.568;27.824;2023-05-29T05:23:53;22.75;;;16.20;;
9671;SDS011;4874;43.568;27.824;2023-05-29T05:26:24;20.55;;;15.80;;
9671;SDS011;4874;43.568;27.824;2023-05-29T05:28:52;19.10;;;15.27;;
9671;SDS011;4874;43.568;27.824;2023-05-29T05:31:19;18.98;;;14.23;;
9671;SDS011;4874;43.568;27.824;2023-05-29T05:33:46;21.30;;;15.75;;
9671;SDS011;4874;43.568;27.824;2023-05-29T05:36:12;21.20;;;15.77;;
9671;SDS011;4874;43.568;27.824;2023-05-29T05:38:39;24.83;;;15.10;;
9671;SDS011;4874;43.568;27.824;2023-05-29T05:41:06;22.52;;;15.48;;
9671;SDS011;4874;43.568;27.824;2023-05-29T05:43:33;21.48;;;15.60;;
9671;SDS011;4874;43.568;27.824;2023-05-29T05:46:00;24.50;;;16.92;;
9671;SDS011;4874;43.568;27.824;2023-05-29T05:48:27;23.23;;;16.70;;
9671;SDS011;4874;43.568;27.824;2023-05-29T05:50:54;25.10;;;16.13;;
9671;SDS011;4874;43.568;27.824;2023-05-29T05:53:20;21.55;;;16.10;;
9671;SDS011;4874;43.568;27.824;2023-05-29T05:55:47;26.95;;;20.65;;
9671;SDS011;4874;43.568;27.824;2023-05-29T05:58:14;34.03;;;24.17;;
9671;SDS011;4874;43.568;27.824;2023-05-29T06:00:41;23.98;;;17.83;;
9671;SDS011;4874;43.568;27.824;2023-05-29T06:03:09;21.35;;;16.45;;
9671;SDS011;4874;43.568;27.824;2023-05-29T06:05:35;19.05;;;14.77;;
9671;SDS011;4874;43.568;27.824;2023-05-29T06:08:04;21.23;;;15.60;;
9671;SDS011;4874;43.568;27.824;2023-05-29T06:10:32;22.02;;;15.75;;
9671;SDS011;4874;43.568;27.824;2023-05-29T06:12:58;22.05;;;15.93;;
9671;SDS011;4874;43.568;27.824;2023-05-29T06:15:25;22.60;;;15.60;;
9671;SDS011;4874;43.568;27.824;2023-05-29T06:17:52;20.90;;;16.38;;
9671;SDS011;4874;43.568;27.824;2023-05-29T06:20:19;23.17;;;16.20;;
9671;SDS011;4874;43.568;27.824;2023-05-29T06:22:45;24.75;;;16.80;;
9671;SDS011;4874;43.568;27.824;2023-05-29T06:25:16;24.98;;;16.85;;
9671;SDS011;4874;43.568;27.824;2023-05-29T06:27:46;21.45;;;16.63;;
9671;SDS011;4874;43.568;27.824;2023-05-29T06:30:13;25.00;;;17.40;;
9671;SDS011;4874;43.568;27.824;2023-05-29T06:32:40;25.42;;;16.95;;
9671;SDS011;4874;43.568;27.824;2023-05-29T06:35:07;32.10;;;22.30;;
9671;SDS011;4874;43.568;27.824;2023-05-29T06:37:33;22.35;;;17.17;;
9671;SDS011;4874;43.568;27.824;2023-05-29T06:40:01;26.92;;;16.70;;
9671;SDS011;4874;43.568;27.824;2023-05-29T06:42:27;25.85;;;17.77;;
9671;SDS011;4874;43.568;27.824;2023-05-29T06:44:54;25.08;;;16.42;;
9671;SDS011;4874;43.568;27.824;2023-05-29T06:47:21;26.40;;;16.45;;
9671;SDS011;4874;43.568;27.824;2023-05-29T06:49:48;23.20;;;17.05;;
9671;SDS011;4874;43.568;27.824;2023-05-29T06:52:14;27.73;;;17.27;;
9671;SDS011;4874;43.568;27.824;2023-05-29T06:54:41;26.75;;;17.45;;
9671;SDS011;4874;43.568;27.824;2023-05-29T06:57:08;24.33;;;17.08;;
9671;SDS011;4874;43.568;27.824;2023-05-29T06:59:36;27.17;;;17.42;;
9671;SDS011;4874;43.568;27.824;2023-05-29T07:02:04;26.75;;;17.58;;
9671;SDS011;4874;43.568;27.824;2023-05-29T07:04:31;32.35;;;18.63;;
9671;SDS011;4874;43.568;27.824;2023-05-29T07:06:58;27.65;;;17.65;;
9671;SDS011;4874;43.568;27.824;2023-05-29T07:09:25;23.13;;;16.77;;
9671;SDS011;4874;43.568;27.824;2023-05-29T07:11:54;28.40;;;19.65;;
9671;SDS011;4874;43.568;27.824;2023-05-29T07:14:21;24.95;;;16.83;;
9671;SDS011;4874;43.568;27.824;2023-05-29T07:16:47;25.85;;;19.00;;
9671;SDS011;4874;43.568;27.824;2023-05-29T07:19:14;30.10;;;19.98;;
9671;SDS011;4874;43.568;27.824;2023-05-29T07:21:45;25.00;;;18.70;;
9671;SDS011;4874;43.568;27.824;2023-05-29T07:24:11;29.73;;;17.35;;
9671;SDS011;4874;43.568;27.824;2023-05-29T07:26:38;29.77;;;18.90;;
9671;SDS011;4874;43.568;27.824;2023-05-29T07:29:05;25.73;;;18.35;;
9671;SDS011;4874;43.568;27.824;2023-05-29T07:31:32;31.67;;;19.50;;
9671;SDS011;4874;43.568;27.824;2023-05-29T07:33:59;26.05;;;18.10;;
9671;SDS011;4874;43.568;27.824;2023-05-29T07:36:29;25.20;;;18.27;;
9671;SDS011;4874;43.568;27.824;2023-05-29T07:38:59;27.17;;;19.05;;
9671;SDS011;4874;43.568;27.824;2023-05-29T07:41:26;25.23;;;19.45;;
9671;SDS011;4874;43.568;27.824;2023-05-29T07:43:53;25.70;;;17.58;;
9671;SDS011;4874;43.568;27.824;2023-05-29T07:46:22;21.75;;;17.48;;
9671;SDS011;4874;43.568;27.824;2023-05-29T07:48:49;28.23;;;19.73;;
9671;SDS011;4874;43.568;27.824;2023-05-29T07:51:15;26.90;;;18.38;;
9671;SDS011;4874;43.568;27.824;2023-05-29T07:53:45;24.40;;;17.70;;
9671;SDS011;4874;43.568;27.824;2023-05-29T07:56:13;27.95;;;21.25;;
9671;SDS011;4874;43.568;27.824;2023-05-29T07:58:40;26.67;;;17.17;;
9671;SDS011;4874;43.568;27.824;2023-05-29T08:01:07;20.27;;;16.17;;
9671;SDS011;4874;43.568;27.824;2023-05-29T08:03:34;22.35;;;17.63;;
9671;SDS011;4874;43.568;27.824;2023-05-29T08:06:01;21.25;;;16.85;;
9671;SDS011;4874;43.568;27.824;2023-05-29T08:08:29;21.00;;;14.90;;
9671;SDS011;4874;43.568;27.824;2023-05-29T08:10:56;21.08;;;16.23;;
9671;SDS011;4874;43.568;27.824;2023-05-29T08:13:23;25.30;;;18.27;;
9671;SDS011;4874;43.568;27.824;2023-05-29T08:15:50;20.70;;;16.88;;
9671;SDS011;4874;43.568;27.824;2023-05-29T08:18:17;22.17;;;17.38;;
9671;SDS011;4874;43.568;27.824;2023-05-29T08:20:43;50.80;;;20.98;;
9671;SDS011;4874;43.568;27.824;2023-05-29T08:23:11;42.97;;;19.67;;
9671;SDS011;4874;43.568;27.824;2023-05-29T08:25:38;21.92;;;16.98;;
9671;SDS011;4874;43.568;27.824;2023-05-29T08:28:04;27.60;;;17.73;;
9671;SDS011;4874;43.568;27.824;2023-05-29T08:30:31;24.00;;;17.92;;
9671;SDS011;4874;43.568;27.824;2023-05-29T08:32:58;23.50;;;17.35;;
9671;SDS011;4874;43.568;27.824;2023-05-29T08:35:25;23.52;;;16.10;;
9671;SDS011;4874;43.568;27.824;2023-05-29T08:37:52;19.70;;;15.10;;
9671;SDS011;4874;43.568;27.824;2023-05-29T08:40:19;23.17;;;15.35;;
9671;SDS011;4874;43.568;27.824;2023-05-29T08:45:53;22.05;;;15.43;;
9671;SDS011;4874;43.568;27.824;2023-05-29T08:48:24;18.35;;;14.60;;
9671;SDS011;4874;43.568;27.824;2023-05-29T08:50:53;18.15;;;15.48;;
9671;SDS011;4874;43.568;27.824;2023-05-29T08:53:22;19.45;;;14.50;;
9671;SDS011;4874;43.568;27.824;2023-05-29T08:55:51;21.02;;;16.13;;
9671;SDS011;4874;43.568;27.824;2023-05-29T08:58:19;19.83;;;14.32;;
9671;SDS011;4874;43.568;27.824;2023-05-29T09:00:50;18.88;;;13.68;;
9671;SDS011;4874;43.568;27.824;2023-05-29T09:03:17;17.67;;;14.65;;
9671;SDS011;4874;43.568;27.824;2023-05-29T09:05:46;17.80;;;13.35;;
9671;SDS011;4874;43.568;27.824;2023-05-29T09:08:15;27.77;;;18.85;;
9671;SDS011;4874;43.568;27.824;2023-05-29T09:10:43;19.73;;;13.80;;
9671;SDS011;4874;43.568;27.824;2023-05-29T09:13:11;16.65;;;12.57;;
9671;SDS011;4874;43.568;27.824;2023-05-29T09:15:40;16.63;;;12.13;;
9671;SDS011;4874;43.568;27.824;2023-05-29T09:18:10;13.75;;;12.02;;
9671;SDS011;4874;43.568;27.824;2023-05-29T09:20:37;19.45;;;12.88;;
9671;SDS011;4874;43.568;27.824;2023-05-29T09:23:05;16.92;;;11.63;;
9671;SDS011;4874;43.568;27.824;2023-05-29T09:25:34;15.43;;;11.80;;
9671;SDS011;4874;43.568;27.824;2023-05-29T09:28:07;14.27;;;10.93;;
9671;SDS011;4874;43.568;27.824;2023-05-29T09:30:44;21.10;;;16.15;;
9671;SDS011;4874;43.568;27.824;2023-05-29T09:33:14;28.33;;;20.50;;
9671;SDS011;4874;43.568;27.824;2023-05-29T09:35:42;17.02;;;12.00;;
9671;SDS011;4874;43.568;27.824;2023-05-29T09:38:11;12.93;;;9.98;;
9671;SDS011;4874;43.568;27.824;2023-05-29T09:40:59;15.63;;;11.85;;
9671;SDS011;4874;43.568;27.824;2023-05-29T09:43:31;12.90;;;9.75;;
9671;SDS011;4874;43.568;27.824;2023-05-29T09:45:59;12.23;;;8.52;;
9671;SDS011;4874;43.568;27.824;2023-05-29T09:48:27;84.25;;;19.48;;
9671;SDS011;4874;43.568;27.824;2023-05-29T09:50:55;12.10;;;9.30;;
9671;SDS011;4874;43.568;27.824;2023-05-29T09:53:24;10.68;;;8.85;;
9671;SDS011;4874;43.568;27.824;2023-05-29T09:55:54;20.38;;;9.02;;
9671;SDS011;4874;43.568;27.824;2023-05-29T09:58:22;9.77;;;7.30;;
9671;SDS011;4874;43.568;27.824;2023-05-29T10:00:50;9.55;;;7.40;;
9671;SDS011;4874;43.568;27.824;2023-05-29T10:03:18;14.57;;;10.43;;
9671;SDS011;4874;43.568;27.824;2023-05-29T10:05:52;12.27;;;9.55;;
9671;SDS011;4874;43.568;27.824;2023-05-29T10:08:23;12.35;;;8.05;;
9671;SDS011;4874;43.568;27.824;2023-05-29T10:10:54;10.18;;;6.15;;
9671;SDS011;4874;43.568;27.824;2023-05-29T10:13:28;11.40;;;6.87;;
9671;SDS011;4874;43.568;27.824;2023-05-29T10:16:00;9.13;;;6.22;;
9671;SDS011;4874;43.568;27.824;2023-05-29T10:18:37;8.55;;;6.60;;
9671;SDS011;4874;43.568;27.824;2023-05-29T10:21:07;10.13;;;6.77;;
9671;SDS011;4874;43.568;27.824;2023-05-29T10:23:34;12.48;;;7.88;;
9671;SDS011;4874;43.568;27.824;2023-05-29T10:26:08;9.38;;;6.82;;
9671;SDS011;4874;43.568;27.824;2023-05-29T10:29:11;10.82;;;6.72;;
9671;SDS011;4874;43.568;27.824;2023-05-29T10:31:58;10.25;;;6.65;;
9671;SDS011;4874;43.568;27.824;2023-05-29T10:40:11;7.90;;;5.85;;
9671;SDS011;4874;43.568;27.824;2023-05-29T10:42:48;9.57;;;6.05;;
9671;SDS011;4874;43.568;27.824;2023-05-29T10:50:45;9.70;;;7.03;;
9671;SDS011;4874;43.568;27.824;2023-05-29T10:53:14;9.80;;;6.65;;
9671;SDS011;4874;43.568;27.824;2023-05-29T10:55:49;12.25;;;7.60;;
9671;SDS011;4874;43.568;27.824;2023-05-29T10:58:17;12.95;;;7.30;;
9671;SDS011;4874;43.568;27.824;2023-05-29T11:00:46;14.07;;;8.02;;
9671;SDS011;4874;43.568;27.824;2023-05-29T11:03:20;11.38;;;8.52;;
9671;SDS011;4874;43.568;27.824;2023-05-29T11:06:04;10.93;;;7.50;;
9671;SDS011;4874;43.568;27.824;2023-05-29T11:08:53;16.58;;;7.38;;
9671;SDS011;4874;43.568;27.824;2023-05-29T11:13:55;9.38;;;7.40;;
9671;SDS011;4874;43.568;27.824;2023-05-29T11:18:56;10.10;;;8.13;;
9671;SDS011;4874;43.568;27.824;2023-05-29T11:24:34;12.35;;;8.65;;
9671;SDS011;4874;43.568;27.824;2023-05-29T11:27:03;12.43;;;9.15;;
9671;SDS011;4874;43.568;27.824;2023-05-29T11:29:34;10.68;;;8.73;;
9671;SDS011;4874;43.568;27.824;2023-05-29T11:32:02;74.30;;;59.50;;
9671;SDS011;4874;43.568;27.824;2023-05-29T11:34:31;11.05;;;8.13;;
9671;SDS011;4874;43.568;27.824;2023-05-29T11:36:59;11.10;;;7.43;;
9671;SDS011;4874;43.568;27.824;2023-05-29T11:39:27;10.52;;;8.02;;
9671;SDS011;4874;43.568;27.824;2023-05-29T11:41:55;10.88;;;8.60;;
9671;SDS011;4874;43.568;27.824;2023-05-29T11:44:25;14.90;;;10.65;;
9671;SDS011;4874;43.568;27.824;2023-05-29T11:47:01;13.05;;;8.55;;
9671;SDS011;4874;43.568;27.824;2023-05-29T11:49:32;10.77;;;8.55;;
9671;SDS011;4874;43.568;27.824;2023-05-29T11:52:07;12.27;;;7.72;;
9671;SDS011;4874;43.568;27.824;2023-05-29T11:54:37;10.82;;;7.88;;
9671;SDS011;4874;43.568;27.824;2023-05-29T11:57:04;11.88;;;9.55;;
9671;SDS011;4874;43.568;27.824;2023-05-29T11:59:32;12.43;;;9.38;;
9671;SDS011;4874;43.568;27.824;2023-05-29T12:02:02;10.88;;;9.13;;
9671;SDS011;4874;43.568;27.824;2023-05-29T12:04:29;12.05;;;9.18;;
9671;SDS011;4874;43.568;27.824;2023-05-29T12:06:56;13.13;;;9.98;;
9671;SDS011;4874;43.568;27.824;2023-05-29T12:09:26;13.90;;;11.15;;
9671;SDS011;4874;43.568;27.824;2023-05-29T12:12:02;13.60;;;10.65;;
9671;SDS011;4874;43.568;27.824;2023-05-29T12:14:29;13.35;;;10.70;;
9671;SDS011;4874;43.568;27.824;2023-05-29T12:16:56;12.20;;;10.05;;
9671;SDS011;4874;43.568;27.824;2023-05-29T12:19:23;14.73;;;11.15;;
9671;SDS011;4874;43.568;27.824;2023-05-29T12:21:50;14.77;;;11.77;;
9671;SDS011;4874;43.568;27.824;2023-05-29T12:24:18;14.82;;;10.93;;
9671;SDS011;4874;43.568;27.824;2023-05-29T12:26:48;13.35;;;10.70;;
9671;SDS011;4874;43.568;27.824;2023-05-29T12:29:15;13.52;;;10.45;;
9671;SDS011;4874;43.568;27.824;2023-05-29T12:31:41;17.30;;;12.70;;
9671;SDS011;4874;43.568;27.824;2023-05-29T12:34:10;16.25;;;13.45;;
9671;SDS011;4874;43.568;27.824;2023-05-29T12:36:41;14.90;;;11.10;;
9671;SDS011;4874;43.568;27.824;2023-05-29T12:39:09;13.77;;;10.80;;
9671;SDS011;4874;43.568;27.824;2023-05-29T12:41:36;14.30;;;11.13;;
9671;SDS011;4874;43.568;27.824;2023-05-29T12:44:05;14.02;;;11.50;;
9671;SDS011;4874;43.568;27.824;2023-05-29T12:46:40;14.85;;;11.65;;
9671;SDS011;4874;43.568;27.824;2023-05-29T12:49:17;16.83;;;12.43;;
9671;SDS011;4874;43.568;27.824;2023-05-29T12:51:47;14.80;;;11.82;;
9671;SDS011;4874;43.568;27.824;2023-05-29T12:54:14;15.43;;;12.82;;
9671;SDS011;4874;43.568;27.824;2023-05-29T12:56:42;13.23;;;11.65;;
9671;SDS011;4874;43.568;27.824;2023-05-29T12:59:10;15.02;;;11.85;;
9671;SDS011;4874;43.568;27.824;2023-05-29T13:01:37;13.25;;;11.85;;
9671;SDS011;4874;43.568;27.824;2023-05-29T13:04:05;14.85;;;10.57;;
9671;SDS011;4874;43.568;27.824;2023-05-29T13:06:34;15.68;;;11.85;;
9671;SDS011;4874;43.568;27.824;2023-05-29T13:09:02;14.60;;;10.40;;
9671;SDS011;4874;43.568;27.824;2023-05-29T13:11:29;14.00;;;10.13;;
9671;SDS011;4874;43.568;27.824;2023-05-29T13:13:56;19.67;;;13.68;;
9671;SDS011;4874;43.568;27.824;2023-05-29T13:16:22;12.68;;;7.97;;
9671;SDS011;4874;43.568;27.824;2023-05-29T13:18:49;13.13;;;10.30;;
9671;SDS011;4874;43.568;27.824;2023-05-29T13:21:16;11.05;;;8.52;;
9671;SDS011;4874;43.568;27.824;2023-05-29T13:23:43;10.93;;;8.23;;
9671;SDS011;4874;43.568;27.824;2023-05-29T13:26:10;9.77;;;7.20;;
9671;SDS011;4874;43.568;27.824;2023-05-29T13:28:36;9.55;;;6.97;;
9671;SDS011;4874;43.568;27.824;2023-05-29T13:31:03;10.52;;;7.53;;
9671;SDS011;4874;43.568;27.824;2023-05-29T13:33:30;10.25;;;6.85;;
9671;SDS011;4874;43.568;27.824;2023-05-29T13:35:57;9.80;;;7.70;;
9671;SDS011;4874;43.568;27.824;2023-05-29T13:38:24;9.68;;;7.22;;
9671;SDS011;4874;43.568;27.824;2023-05-29T13:40:51;8.52;;;7.00;;
9671;SDS011;4874;43.568;27.824;2023-05-29T13:43:18;10.50;;;7.63;;
9671;SDS011;4874;43.568;27.824;2023-05-29T13:45:51;8.57;;;7.25;;
9671;SDS011;4874;43.568;27.824;2023-05-29T13:48:18;10.23;;;7.70;;
9671;SDS011;4874;43.568;27.824;2023-05-29T13:50:45;11.10;;;8.40;;
9671;SDS011;4874;43.568;27.824;2023-05-29T13:53:12;12.20;;;9.82;;
9671;SDS011;4874;43.568;27.824;2023-05-29T13:55:39;10.93;;;8.50;;
9671;SDS011;4874;43.568;27.824;2023-05-29T13:58:06;10.18;;;7.68;;
9671;SDS011;4874;43.568;27.824;2023-05-29T14:00:33;8.50;;;6.57;;
9671;SDS011;4874;43.568;27.824;2023-05-29T14:03:00;9.05;;;6.30;;
9671;SDS011;4874;43.568;27.824;2023-05-29T14:05:27;6.82;;;5.72;;
9671;SDS011;4874;43.568;27.824;2023-05-29T14:07:54;7.53;;;6.22;;
9671;SDS011;4874;43.568;27.824;2023-05-29T14:10:20;7.40;;;5.35;;
9671;SDS011;4874;43.568;27.824;2023-05-29T14:12:48;6.00;;;4.97;;
9671;SDS011;4874;43.568;27.824;2023-05-29T14:15:15;5.82;;;4.70;;
9671;SDS011;4874;43.568;27.824;2023-05-29T14:17:42;6.75;;;4.80;;
9671;SDS011;4874;43.568;27.824;2023-05-29T14:20:09;8.20;;;5.40;;
9671;SDS011;4874;43.568;27.824;2023-05-29T14:22:36;7.05;;;4.68;;
9671;SDS011;4874;43.568;27.824;2023-05-29T14:25:04;9.25;;;5.43;;
9671;SDS011;4874;43.568;27.824;2023-05-29T14:27:31;6.97;;;5.40;;
9671;SDS011;4874;43.568;27.824;2023-05-29T14:29:58;9.50;;;5.80;;
9671;SDS011;4874;43.568;27.824;2023-05-29T14:32:26;8.10;;;6.25;;
9671;SDS011;4874;43.568;27.824;2023-05-29T14:34:53;7.80;;;5.97;;
9671;SDS011;4874;43.568;27.824;2023-05-29T14:37:19;7.90;;;6.18;;
9671;SDS011;4874;43.568;27.824;2023-05-29T14:39:46;8.77;;;5.97;;
9671;SDS011;4874;43.568;27.824;2023-05-29T14:42:13;9.80;;;6.22;;
9671;SDS011;4874;43.568;27.824;2023-05-29T14:44:41;9.73;;;6.60;;
9671;SDS011;4874;43.568;27.824;2023-05-29T14:47:08;7.70;;;6.32;;
9671;SDS011;4874;43.568;27.824;2023-05-29T14:49:36;8.27;;;6.50;;
9671;SDS011;4874;43.568;27.824;2023-05-29T14:52:03;9.20;;;6.80;;
9671;SDS011;4874;43.568;27.824;2023-05-29T14:54:31;9.55;;;6.88;;
9671;SDS011;4874;43.568;27.824;2023-05-29T14:56:57;17.88;;;13.68;;
9671;SDS011;4874;43.568;27.824;2023-05-29T14:59:24;9.85;;;7.65;;
9671;SDS011;4874;43.568;27.824;2023-05-29T15:01:51;11.93;;;6.43;;
9671;SDS011;4874;43.568;27.824;2023-05-29T15:04:20;8.68;;;6.97;;
9671;SDS011;4874;43.568;27.824;2023-05-29T15:06:47;8.55;;;6.80;;
9671;SDS011;4874;43.568;27.824;2023-05-29T15:09:20;8.30;;;6.72;;
9671;SDS011;4874;43.568;27.824;2023-05-29T15:11:47;10.40;;;7.70;;
9671;SDS011;4874;43.568;27.824;2023-05-29T15:14:14;12.48;;;6.95;;
9671;SDS011;4874;43.568;27.824;2023-05-29T15:16:41;10.30;;;6.47;;
9671;SDS011;4874;43.568;27.824;2023-05-29T15:19:08;11.23;;;6.70;;